createdAt,value
2019-04-10T00:00:47.743Z,99.90
2019-04-10T00:03:27.902Z,99.90
2019-04-10T00:05:47.958Z,99.90
2019-04-10T00:08:16.415Z,99.90
2019-04-10T00:10:45.757Z,99.90
2019-04-10T00:13:15.271Z,99.90
2019-04-10T00:15:44.153Z,99.90
2019-04-10T00:18:13.649Z,99.90
2019-04-10T00:20:42.717Z,99.90
2019-04-10T00:23:11.705Z,99.90
2019-04-10T00:25:40.962Z,99.90
2019-04-10T00:28:10.073Z,99.90
2019-04-10T00:30:38.481Z,99.90
2019-04-10T00:33:06.868Z,99.90
2019-04-10T00:35:35.281Z,99.90
2019-04-10T00:38:03.691Z,99.90
2019-04-10T00:40:33.027Z,99.90
2019-04-10T00:43:02.340Z,99.90
2019-04-10T00:45:30.792Z,99.90
2019-04-10T00:47:59.542Z,99.90
2019-04-10T00:50:28.719Z,99.90
2019-04-10T00:52:57.376Z,99.90
2019-04-10T00:55:25.885Z,99.90
2019-04-10T00:57:54.733Z,99.90
2019-04-10T01:00:23.736Z,99.90
2019-04-10T01:02:53.267Z,99.90
2019-04-10T01:05:22.908Z,99.90
2019-04-10T01:07:52.007Z,99.90
2019-04-10T01:10:22.046Z,99.90
2019-04-10T01:12:51.089Z,99.90
2019-04-10T01:15:20.401Z,99.90
2019-04-10T01:17:49.373Z,99.90
2019-04-10T01:20:17.765Z,99.90
2019-04-10T01:22:46.149Z,99.90
2019-04-10T01:25:14.544Z,99.90
2019-04-10T01:27:42.937Z,99.90
2019-04-10T01:30:11.532Z,99.90
2019-04-10T01:32:39.932Z,99.90
2019-04-10T01:35:08.384Z,99.90
2019-04-10T01:37:48.902Z,99.90
2019-04-10T01:40:26.767Z,99.90
2019-04-10T01:43:09.681Z,99.90
2019-04-10T01:45:25.840Z,99.90
2019-04-10T01:47:55.235Z,99.90
2019-04-10T01:50:24.431Z,99.90
2019-04-10T01:52:53.393Z,99.90
2019-04-10T01:55:26.608Z,99.90
2019-04-10T01:57:52.838Z,99.90
2019-04-10T02:00:23.705Z,99.90
2019-04-10T02:02:54.268Z,99.90
2019-04-10T02:05:22.843Z,99.90
2019-04-10T02:08:01.113Z,99.90
2019-04-10T02:10:22.032Z,99.90
2019-04-10T02:12:50.913Z,99.90
2019-04-10T02:15:19.952Z,99.90
2019-04-10T02:17:48.709Z,99.90
2019-04-10T02:20:18.949Z,99.90
2019-04-10T02:22:47.992Z,99.90
2019-04-10T02:25:17.855Z,99.90
2019-04-10T02:27:46.966Z,99.90
2019-04-10T02:30:19.507Z,99.90
2019-04-10T02:32:48.043Z,99.90
2019-04-10T02:35:19.697Z,99.90
2019-04-10T02:37:52.384Z,99.90
2019-04-10T02:40:19.113Z,99.90
2019-04-10T02:42:49.157Z,99.90
2019-04-10T02:45:19.090Z,99.90
2019-04-10T02:47:48.074Z,99.90
2019-04-10T02:50:16.670Z,99.90
2019-04-10T02:52:45.914Z,99.90
2019-04-10T02:55:16.798Z,99.90
2019-04-10T02:57:46.010Z,99.90
2019-04-10T03:00:17.823Z,99.90
2019-04-10T03:02:47.749Z,99.90
2019-04-10T03:05:17.631Z,99.90
2019-04-10T03:07:46.582Z,99.90
2019-04-10T03:10:25.274Z,99.90
2019-04-10T03:12:48.157Z,99.90
2019-04-10T03:15:17.280Z,99.90
2019-04-10T03:17:46.963Z,99.90
2019-04-10T03:20:16.211Z,99.90
2019-04-10T03:22:45.449Z,99.90
2019-04-10T03:25:14.838Z,99.90
2019-04-10T03:27:44.796Z,99.90
2019-04-10T03:30:15.297Z,99.90
2019-04-10T03:32:51.573Z,99.90
2019-04-10T03:35:32.711Z,99.90
2019-04-10T03:38:01.545Z,99.90
2019-04-10T03:40:31.349Z,99.90
2019-04-10T03:43:01.401Z,99.90
2019-04-10T03:45:30.740Z,99.90
2019-04-10T03:48:00.013Z,99.90
2019-04-10T03:50:29.980Z,99.90
2019-04-10T03:53:00.093Z,99.90
2019-04-10T03:55:29.292Z,99.90
2019-04-10T03:57:58.703Z,99.90
2019-04-10T04:00:27.916Z,99.90
2019-04-10T04:02:57.052Z,99.90
2019-04-10T04:05:26.691Z,99.90
2019-04-10T04:07:55.583Z,99.90
2019-04-10T04:10:24.616Z,99.90
2019-04-10T04:12:53.681Z,99.90
2019-04-10T04:15:22.121Z,99.90
2019-04-10T04:17:50.675Z,99.90
2019-04-10T04:20:19.576Z,99.90
2019-04-10T04:22:47.961Z,99.90
2019-04-10T04:25:17.002Z,99.90
2019-04-10T04:27:46.364Z,99.90
2019-04-10T04:30:17.001Z,99.90
2019-04-10T04:32:46.155Z,99.90
2019-04-10T04:35:15.402Z,99.90
2019-04-10T04:37:44.385Z,99.90
2019-04-10T04:40:13.185Z,99.90
2019-04-10T04:42:42.657Z,99.90
2019-04-10T04:45:12.767Z,99.90
2019-04-10T04:47:41.821Z,99.90
2019-04-10T04:50:10.214Z,99.90
2019-04-10T04:52:39.120Z,99.90
2019-04-10T04:55:08.164Z,99.90
2019-04-10T04:57:39.090Z,99.90
2019-04-10T05:00:07.789Z,99.90
2019-04-10T05:02:37.207Z,99.90
2019-04-10T05:05:07.332Z,99.90
2019-04-10T05:07:35.733Z,99.90
2019-04-10T05:10:07.595Z,99.90
2019-04-10T05:12:36.058Z,99.90
2019-04-10T05:15:07.313Z,99.90
2019-04-10T05:17:35.705Z,99.90
2019-04-10T05:20:07.017Z,99.90
2019-04-10T05:22:35.942Z,99.90
2019-04-10T05:25:05.157Z,99.90
2019-04-10T05:27:33.571Z,99.90
2019-04-10T05:30:02.317Z,99.90
2019-04-10T05:32:31.576Z,99.90
2019-04-10T05:35:01.189Z,99.90
2019-04-10T05:37:30.085Z,99.90
2019-04-10T05:39:59.221Z,99.90
2019-04-10T05:42:28.977Z,99.90
2019-04-10T05:44:58.606Z,99.90
2019-04-10T05:47:28.340Z,99.90
2019-04-10T05:49:57.710Z,99.90
2019-04-10T05:52:26.727Z,99.90
2019-04-10T05:54:55.794Z,99.90
2019-04-10T05:57:24.594Z,99.90
2019-04-10T05:59:54.385Z,99.90
2019-04-10T06:02:23.396Z,99.90
2019-04-10T06:04:51.863Z,99.90
2019-04-10T06:07:21.120Z,99.90
2019-04-10T06:09:55.963Z,99.90
2019-04-10T06:12:20.513Z,99.90
2019-04-10T06:14:48.885Z,99.90
2019-04-10T06:17:18.338Z,99.90
2019-04-10T06:19:47.362Z,99.90
2019-04-10T06:22:16.704Z,99.90
2019-04-10T06:24:46.766Z,99.90
2019-04-10T06:27:16.380Z,99.90
2019-04-10T06:29:46.284Z,99.90
2019-04-10T06:32:15.261Z,99.90
2019-04-10T06:34:43.687Z,99.90
2019-04-10T06:37:12.076Z,99.90
2019-04-10T06:39:43.401Z,99.90
2019-04-10T06:42:12.021Z,99.90
2019-04-10T06:44:41.809Z,99.90
2019-04-10T06:47:11.868Z,99.90
2019-04-10T06:49:40.859Z,99.90
2019-04-10T06:52:10.083Z,99.90
2019-04-10T06:54:39.080Z,99.90
2019-04-10T06:57:08.265Z,99.90
2019-04-10T06:59:37.761Z,99.90
2019-04-10T07:02:16.631Z,99.90
2019-04-10T07:04:45.773Z,99.90
2019-04-10T07:07:11.294Z,99.90
2019-04-10T07:09:37.951Z,99.90
2019-04-10T07:12:07.936Z,99.90
2019-04-10T07:14:38.147Z,99.90
2019-04-10T07:17:08.837Z,99.90
2019-04-10T07:19:37.221Z,99.90
2019-04-10T07:22:12.016Z,99.90
2019-04-10T07:24:39.679Z,99.90
2019-04-10T07:27:07.824Z,99.90
2019-04-10T07:29:36.700Z,99.90
2019-04-10T07:32:09.648Z,99.90
2019-04-10T07:34:36.210Z,99.90
2019-04-10T07:37:05.750Z,99.90
2019-04-10T07:39:35.156Z,99.90
2019-04-10T07:42:04.370Z,99.90
2019-04-10T07:44:32.776Z,99.90
2019-04-10T07:47:01.166Z,99.90
2019-04-10T07:49:31.265Z,99.90
2019-04-10T07:52:00.912Z,99.90
2019-04-10T07:54:30.812Z,99.90
2019-04-10T07:56:59.998Z,99.90
2019-04-10T07:59:29.234Z,99.90
2019-04-10T08:01:58.225Z,99.90
2019-04-10T08:04:26.873Z,99.90
2019-04-10T08:06:55.784Z,99.90
2019-04-10T08:09:24.361Z,99.90
2019-04-10T08:11:54.391Z,99.90
2019-04-10T08:14:23.817Z,99.90
2019-04-10T08:16:52.804Z,99.90
2019-04-10T08:19:21.441Z,99.90
2019-04-10T08:21:49.829Z,99.90
2019-04-10T08:24:18.228Z,99.90
2019-04-10T08:26:47.224Z,99.90
2019-04-10T08:29:16.249Z,99.90
2019-04-10T08:31:44.669Z,99.90
2019-04-10T08:34:13.076Z,99.90
2019-04-10T08:36:41.578Z,99.90
2019-04-10T08:39:10.963Z,99.90
2019-04-10T08:41:39.924Z,99.90
2019-04-10T08:44:08.318Z,99.90
2019-04-10T08:46:37.715Z,99.90
2019-04-10T08:49:07.805Z,99.90
2019-04-10T08:51:36.850Z,99.90
2019-04-10T08:54:05.300Z,99.90
2019-04-10T08:56:33.710Z,99.90
2019-04-10T08:59:02.101Z,99.90
2019-04-10T09:01:31.577Z,99.90
2019-04-10T09:04:00.013Z,99.90
2019-04-10T09:06:28.414Z,99.50
2019-04-10T09:08:57.173Z,98.80
2019-04-10T09:11:28.448Z,94.90
2019-04-10T09:13:56.925Z,90.00
2019-04-10T09:16:26.709Z,83.50
2019-04-10T09:18:55.790Z,82.60
2019-04-10T09:21:24.463Z,78.60
2019-04-10T09:23:56.027Z,76.30
2019-04-10T09:26:22.992Z,72.60
2019-04-10T09:28:51.413Z,71.40
2019-04-10T09:31:19.855Z,67.50
2019-04-10T09:33:49.453Z,66.40
2019-04-10T09:36:19.706Z,66.20
2019-04-10T09:38:48.593Z,65.50
2019-04-10T09:41:17.497Z,65.50
2019-04-10T09:43:47.615Z,66.00
2019-04-10T09:46:16.569Z,65.20
2019-04-10T09:48:44.953Z,68.20
2019-04-10T09:51:16.222Z,69.90
2019-04-10T09:53:43.471Z,66.20
2019-04-10T09:56:11.882Z,67.30
2019-04-10T09:58:40.545Z,71.10
2019-04-10T10:01:15.099Z,70.60
2019-04-10T10:03:44.558Z,67.10
2019-04-10T10:06:23.311Z,67.60
2019-04-10T10:08:43.703Z,63.80
2019-04-10T10:11:13.689Z,64.30
2019-04-10T10:13:42.669Z,62.20
2019-04-10T10:16:11.153Z,60.40
2019-04-10T10:18:39.549Z,60.10
2019-04-10T10:21:08.242Z,60.00
2019-04-10T10:23:38.057Z,60.10
2019-04-10T10:26:06.489Z,59.00
2019-04-10T10:28:35.374Z,60.10
2019-04-10T10:31:04.368Z,59.50
2019-04-10T10:33:32.764Z,59.60
2019-04-10T10:36:01.168Z,56.70
2019-04-10T10:38:29.873Z,55.70
2019-04-10T10:40:59.126Z,56.50
2019-04-10T10:43:28.800Z,56.00
2019-04-10T10:45:58.808Z,57.60
2019-04-10T10:48:27.436Z,55.70
2019-04-10T10:50:56.390Z,55.50
2019-04-10T10:53:24.781Z,54.00
2019-04-10T10:55:53.945Z,56.00
2019-04-10T10:58:23.840Z,56.90
2019-04-10T11:00:53.694Z,56.30
2019-04-10T11:03:22.811Z,55.40
2019-04-10T11:05:51.213Z,55.50
2019-04-10T11:08:20.882Z,57.10
2019-04-10T11:10:55.243Z,57.80
2019-04-10T11:13:19.847Z,58.10
2019-04-10T11:15:48.513Z,56.60
2019-04-10T11:18:18.141Z,58.40
2019-04-10T11:20:46.540Z,60.20
2019-04-10T11:23:15.205Z,58.70
2019-04-10T11:25:43.853Z,56.80
2019-04-10T11:28:13.924Z,59.10
2019-04-10T11:30:43.016Z,56.20
2019-04-10T11:33:12.400Z,54.20
2019-04-10T11:35:41.469Z,51.90
2019-04-10T11:38:10.955Z,52.80
2019-04-10T11:40:41.358Z,55.50
2019-04-10T11:43:10.136Z,53.70
2019-04-10T11:45:43.597Z,55.30
2019-04-10T11:48:10.306Z,54.20
2019-04-10T11:50:38.884Z,55.30
2019-04-10T11:53:09.701Z,54.30
2019-04-10T11:55:43.757Z,52.50
2019-04-10T11:58:10.541Z,52.10
2019-04-10T12:03:15.256Z,49.10
2019-04-10T12:05:46.207Z,51.30
2019-04-10T12:08:41.708Z,48.90
2019-04-10T12:13:16.450Z,48.20
2019-04-10T12:15:45.024Z,46.60
2019-04-10T12:18:14.180Z,48.30
2019-04-10T12:20:43.116Z,49.10
2019-04-10T12:23:12.600Z,50.50
2019-04-10T12:25:41.965Z,50.50
2019-04-10T12:28:11.888Z,49.10
2019-04-10T12:30:41.879Z,50.40
2019-04-10T12:33:10.285Z,47.50
2019-04-10T12:35:40.232Z,48.10
2019-04-10T12:38:10.771Z,49.10
2019-04-10T12:40:40.416Z,48.10
2019-04-10T12:43:10.416Z,45.70
2019-04-10T12:45:40.194Z,44.80
2019-04-10T12:48:10.365Z,43.80
2019-04-10T12:50:39.163Z,44.00
2019-04-10T12:53:09.346Z,45.80
2019-04-10T12:55:38.914Z,47.10
2019-04-10T12:58:13.669Z,47.90
2019-04-10T13:00:38.183Z,46.80
2019-04-10T13:03:06.897Z,46.40
2019-04-10T13:05:37.538Z,47.90
2019-04-10T13:08:20.225Z,48.70
2019-04-10T13:10:37.737Z,47.00
2019-04-10T13:13:06.787Z,46.20
2019-04-10T13:15:35.332Z,48.10
2019-04-10T13:18:03.934Z,50.00
2019-04-10T13:20:33.698Z,46.80
2019-04-10T13:23:02.663Z,46.90
2019-04-10T13:25:31.045Z,47.00
2019-04-10T13:27:59.453Z,47.30
2019-04-10T13:30:39.137Z,48.90
2019-04-10T13:32:58.316Z,46.50
2019-04-10T13:35:28.411Z,44.80
2019-04-10T13:37:57.392Z,44.90
2019-04-10T13:40:25.813Z,46.40
2019-04-10T13:42:54.184Z,48.80
2019-04-10T13:45:23.573Z,47.80
2019-04-10T13:47:52.457Z,46.40
2019-04-10T13:50:20.924Z,47.70
2019-04-10T13:52:54.150Z,46.70
2019-04-10T13:55:24.192Z,47.00
2019-04-10T13:57:53.308Z,47.10
2019-04-10T14:00:35.607Z,47.20
2019-04-10T14:03:05.962Z,47.40
2019-04-10T14:05:36.946Z,47.50
2019-04-10T14:08:06.769Z,47.70
2019-04-10T14:10:35.394Z,46.60
2019-04-10T14:13:05.298Z,47.10
2019-04-10T14:15:33.838Z,46.90
2019-04-10T14:18:02.368Z,46.00
2019-04-10T14:20:31.263Z,46.30
2019-04-10T14:23:02.151Z,47.00
2019-04-10T14:25:49.789Z,46.10
2019-04-10T14:28:27.005Z,47.20
2019-04-10T14:30:57.857Z,47.70
2019-04-10T14:33:26.288Z,47.80
2019-04-10T14:35:55.698Z,48.20
2019-04-10T14:38:25.303Z,46.60
2019-04-10T14:40:53.741Z,46.70
2019-04-10T14:43:22.997Z,47.80
2019-04-10T14:45:52.094Z,46.30
2019-04-10T14:48:22.378Z,46.50
2019-04-10T14:50:51.414Z,45.90
2019-04-10T14:53:19.823Z,47.20
2019-04-10T14:55:49.240Z,46.90
2019-04-10T14:58:25.183Z,48.30
2019-04-10T15:00:49.512Z,50.10
2019-04-10T15:03:20.985Z,47.10
2019-04-10T15:05:51.396Z,45.50
2019-04-10T15:08:19.702Z,45.50
2019-04-10T15:10:48.238Z,47.40
2019-04-10T15:13:20.843Z,45.50
2019-04-10T15:15:46.777Z,48.60
2019-04-10T15:18:15.149Z,47.50
2019-04-10T15:20:43.631Z,46.70
2019-04-10T15:23:12.021Z,48.10
2019-04-10T15:25:41.531Z,49.00
2019-04-10T15:28:10.628Z,50.10
2019-04-10T15:30:39.125Z,50.30
2019-04-10T15:33:07.555Z,49.00
2019-04-10T15:35:35.945Z,50.70
2019-04-10T15:38:04.410Z,49.00
2019-04-10T15:40:33.090Z,49.00
2019-04-10T15:43:01.484Z,49.10
2019-04-10T15:45:30.206Z,49.70
2019-04-10T15:48:00.494Z,49.50
2019-04-10T15:50:30.430Z,49.90
2019-04-10T15:52:59.931Z,51.20
2019-04-10T15:55:28.526Z,51.20
2019-04-10T15:57:59.786Z,52.80
2019-04-10T16:00:27.421Z,53.10
2019-04-10T16:02:55.908Z,55.30
2019-04-10T16:05:24.347Z,54.80
2019-04-10T16:07:53.142Z,54.20
2019-04-10T16:10:32.930Z,55.70
2019-04-10T16:13:19.869Z,54.80
2019-04-10T16:15:50.408Z,54.80
2019-04-10T16:18:30.531Z,56.10
2019-04-10T16:20:59.987Z,55.50
2019-04-10T16:23:31.283Z,57.30
2019-04-10T16:26:00.837Z,56.50
2019-04-10T16:28:29.479Z,56.40
2019-04-10T16:30:59.156Z,58.30
2019-04-10T16:33:27.808Z,58.30
2019-04-10T16:35:56.949Z,60.20
2019-04-10T16:38:26.797Z,61.80
2019-04-10T16:40:56.329Z,62.80
2019-04-10T16:43:52.898Z,64.80
2019-04-10T16:46:21.893Z,64.30
2019-04-10T16:48:50.491Z,66.60
2019-04-10T16:51:20.437Z,64.70
2019-04-10T16:53:49.013Z,63.50
2019-04-10T16:56:17.789Z,64.70
2019-04-10T16:58:47.868Z,65.60
2019-04-10T17:01:18.097Z,65.30
2019-04-10T17:03:47.141Z,68.70
2019-04-10T17:06:15.540Z,67.90
2019-04-10T17:08:44.262Z,68.20
2019-04-10T17:11:12.851Z,69.70
2019-04-10T17:13:42.506Z,69.60
2019-04-10T17:16:11.608Z,69.90
2019-04-10T17:18:40.017Z,70.60
2019-04-10T17:21:08.992Z,70.90
2019-04-10T17:23:38.790Z,73.00
2019-04-10T17:26:08.542Z,73.20
2019-04-10T17:28:38.539Z,71.80
2019-04-10T17:31:09.135Z,72.20
2019-04-10T17:33:38.384Z,72.50
2019-04-10T17:36:09.794Z,74.00
2019-04-10T17:38:38.662Z,75.00
2019-04-10T17:41:07.302Z,74.90
2019-04-10T17:43:37.106Z,75.50
2019-04-10T17:46:06.927Z,76.10
2019-04-10T17:48:37.627Z,76.20
2019-04-10T17:51:07.988Z,77.30
2019-04-10T17:53:37.739Z,78.00
2019-04-10T17:56:06.669Z,78.30
2019-04-10T17:58:35.853Z,79.50
2019-04-10T18:01:08.271Z,79.90
2019-04-10T18:03:47.205Z,81.60
2019-04-10T18:06:07.581Z,82.40
2019-04-10T18:08:36.788Z,82.60
2019-04-10T18:11:06.004Z,84.20
2019-04-10T18:13:34.358Z,84.80
2019-04-10T18:16:02.755Z,86.70
2019-04-10T18:18:31.648Z,88.00
2019-04-10T18:21:00.586Z,88.40
2019-04-10T18:23:28.969Z,89.40
2019-04-10T18:25:58.298Z,88.60
2019-04-10T18:28:27.914Z,90.00
2019-04-10T18:30:58.550Z,90.40
2019-04-10T18:33:28.657Z,90.50
2019-04-10T18:35:57.721Z,91.20
2019-04-10T18:38:26.116Z,91.80
2019-04-10T18:41:00.825Z,91.80
2019-04-10T18:43:25.922Z,92.30
2019-04-10T18:46:06.149Z,92.00
2019-04-10T18:48:25.287Z,92.10
2019-04-10T18:50:53.822Z,92.60
2019-04-10T18:53:22.768Z,92.70
2019-04-10T18:55:52.286Z,93.70
2019-04-10T18:58:25.861Z,93.70
2019-04-10T19:01:07.675Z,94.20
2019-04-10T19:03:46.186Z,94.70
2019-04-10T19:06:16.259Z,94.80
2019-04-10T19:08:46.230Z,95.30
2019-04-10T19:11:22.760Z,95.40
2019-04-10T19:13:45.433Z,95.80
2019-04-10T19:16:15.457Z,95.90
2019-04-10T19:18:43.889Z,96.00
2019-04-10T19:21:13.261Z,96.10
2019-04-10T19:23:41.831Z,96.70
2019-04-10T19:26:12.726Z,96.30
2019-04-10T19:28:44.743Z,96.60
2019-04-10T19:34:05.165Z,96.60
2019-04-10T19:36:34.424Z,96.80
2019-04-10T19:39:02.865Z,96.80
2019-04-10T19:41:36.228Z,97.10
2019-04-10T19:44:02.419Z,97.30
2019-04-10T19:46:31.470Z,97.70
2019-04-10T19:48:59.892Z,97.70
2019-04-10T19:51:28.317Z,97.90
2019-04-10T19:53:57.645Z,97.90
2019-04-10T19:56:26.660Z,98.00
2019-04-10T19:58:56.512Z,98.00
2019-04-10T20:01:28.578Z,98.20
2019-04-10T20:03:56.404Z,98.00
2019-04-10T20:06:25.413Z,98.10
2019-04-10T20:08:53.801Z,98.20
2019-04-10T20:11:31.838Z,98.10
2019-04-10T20:13:52.336Z,98.50
2019-04-10T20:16:20.749Z,98.30
2019-04-10T20:18:49.136Z,98.30
2019-04-10T20:21:17.632Z,98.70
2019-04-10T20:23:46.045Z,98.60
2019-04-10T20:26:14.816Z,98.60
2019-04-10T20:28:44.891Z,98.60
2019-04-10T20:31:15.639Z,98.80
2019-04-10T20:33:45.077Z,99.00
2019-04-10T20:36:15.082Z,99.00
2019-04-10T20:38:45.023Z,98.90
2019-04-10T20:41:14.166Z,99.50
2019-04-10T20:43:43.064Z,99.50
2019-04-10T20:46:11.804Z,99.50
2019-04-10T20:48:40.736Z,99.80
2019-04-10T20:51:09.296Z,99.90
2019-04-10T20:53:38.305Z,99.90
2019-04-10T20:56:06.697Z,99.90
2019-04-10T20:58:36.137Z,99.90
2019-04-10T21:01:06.049Z,99.90
2019-04-10T21:03:35.923Z,99.90
2019-04-10T21:06:04.960Z,99.90
2019-04-10T21:08:34.173Z,99.90
2019-04-10T21:11:03.436Z,99.90
2019-04-10T21:13:32.122Z,99.90
2019-04-10T21:16:00.735Z,99.90
2019-04-10T21:18:29.675Z,99.90
2019-04-10T21:20:58.057Z,99.90
2019-04-10T21:23:27.229Z,99.90
2019-04-10T21:25:57.246Z,99.90
2019-04-10T21:28:26.348Z,99.90
2019-04-10T21:30:56.640Z,99.90
2019-04-10T21:33:36.712Z,99.90
2019-04-10T21:36:05.696Z,99.90
2019-04-10T21:38:34.081Z,99.90
2019-04-10T21:41:03.079Z,99.90
2019-04-10T21:43:32.577Z,99.90
2019-04-10T21:46:00.980Z,99.90
2019-04-10T21:48:29.360Z,99.90
2019-04-10T21:50:58.198Z,99.90
2019-04-10T21:53:28.304Z,99.90
2019-04-10T21:55:57.240Z,99.90
2019-04-10T21:58:25.652Z,99.90
2019-04-10T22:01:01.685Z,99.90
2019-04-10T22:03:30.145Z,99.90
2019-04-10T22:06:01.316Z,99.90
2019-04-10T22:08:32.048Z,99.90
2019-04-10T22:11:00.808Z,99.90
2019-04-10T22:13:30.173Z,99.90
2019-04-10T22:15:59.675Z,99.90
2019-04-10T22:18:29.578Z,99.90
2019-04-10T22:20:58.688Z,99.90
2019-04-10T22:23:28.481Z,99.90
2019-04-10T22:25:57.588Z,99.90
2019-04-10T22:28:25.976Z,99.90
2019-04-10T22:30:54.688Z,99.90
2019-04-10T22:33:24.488Z,99.90
2019-04-10T22:35:52.849Z,99.90
2019-04-10T22:38:21.601Z,99.90
2019-04-10T22:40:50.370Z,99.90
2019-04-10T22:43:20.284Z,99.90
2019-04-10T22:45:50.695Z,99.90
2019-04-10T22:48:20.894Z,99.90
2019-04-10T22:50:49.881Z,99.90
2019-04-10T22:53:19.335Z,99.90
2019-04-10T22:55:48.595Z,99.90
2019-04-10T22:58:17.521Z,99.90
2019-04-10T23:00:46.078Z,99.90
2019-04-10T23:03:14.428Z,99.90
2019-04-10T23:05:42.857Z,99.90
2019-04-10T23:08:11.559Z,99.90
2019-04-10T23:10:41.296Z,99.90
2019-04-10T23:13:10.485Z,99.90
2019-04-10T23:15:39.867Z,99.90
2019-04-10T23:18:09.689Z,99.90
2019-04-10T23:20:38.080Z,99.90
2019-04-10T23:23:06.581Z,99.90
2019-04-10T23:25:34.937Z,99.90
2019-04-10T23:28:03.333Z,99.90
2019-04-10T23:30:32.939Z,99.90
2019-04-10T23:33:01.877Z,99.90
2019-04-10T23:35:31.527Z,99.90
2019-04-10T23:38:01.469Z,99.90
2019-04-10T23:40:30.486Z,99.90
2019-04-10T23:43:07.505Z,99.90
2019-04-10T23:45:29.472Z,99.90
2019-04-10T23:47:58.463Z,99.90
2019-04-10T23:50:27.088Z,99.90
2019-04-10T23:52:56.291Z,99.90
2019-04-10T23:55:26.255Z,99.90
2019-04-10T23:57:55.761Z,99.90
